createdAt,value
2018-06-21T00:00:44.983Z,81.81
2018-06-21T00:03:13.615Z,82.42
2018-06-21T00:05:42.226Z,82.69
2018-06-21T00:08:10.760Z,82.72
2018-06-21T00:10:39.541Z,82.31
2018-06-21T00:13:08.281Z,83.03
2018-06-21T00:15:36.953Z,82.60
2018-06-21T00:18:05.937Z,82.65
2018-06-21T00:20:34.680Z,83.49
2018-06-21T00:23:03.366Z,83.25
2018-06-21T00:25:32.060Z,82.69
2018-06-21T00:28:00.775Z,82.65
2018-06-21T00:30:29.303Z,83.47
2018-06-21T00:32:57.952Z,83.71
2018-06-21T00:35:26.527Z,83.65
2018-06-21T00:37:55.067Z,84.00
2018-06-21T00:40:23.697Z,84.02
2018-06-21T00:42:52.420Z,83.91
2018-06-21T00:45:20.957Z,83.81
2018-06-21T00:47:49.536Z,83.87
2018-06-21T00:50:18.393Z,84.67
2018-06-21T00:52:46.940Z,83.87
2018-06-21T00:55:22.795Z,84.50
2018-06-21T00:57:51.345Z,84.78
2018-06-21T01:00:19.886Z,84.11
2018-06-21T01:02:48.478Z,84.78
2018-06-21T01:05:17.050Z,84.41
2018-06-21T01:07:45.705Z,84.53
2018-06-21T01:10:14.242Z,84.92
2018-06-21T01:12:42.847Z,84.58
2018-06-21T01:15:11.529Z,85.25
2018-06-21T01:17:40.250Z,85.63
2018-06-21T01:20:08.915Z,85.59
2018-06-21T01:22:37.520Z,85.65
2018-06-21T01:25:06.264Z,84.88
2018-06-21T01:27:34.823Z,85.61
2018-06-21T01:30:03.464Z,85.04
2018-06-21T01:32:32.133Z,85.47
2018-06-21T01:35:00.796Z,85.21
2018-06-21T01:37:29.363Z,85.05
2018-06-21T01:39:58.025Z,85.19
2018-06-21T01:42:29.545Z,85.21
2018-06-21T01:44:58.287Z,85.18
2018-06-21T01:47:26.914Z,85.19
2018-06-21T01:49:55.576Z,85.19
2018-06-21T01:52:24.179Z,85.69
2018-06-21T01:54:52.866Z,84.94
2018-06-21T01:57:21.531Z,85.96
2018-06-21T01:59:50.139Z,85.30
2018-06-21T02:02:18.821Z,86.05
2018-06-21T02:04:47.418Z,86.03
2018-06-21T02:07:15.963Z,85.76
2018-06-21T02:09:44.598Z,86.20
2018-06-21T02:12:13.260Z,86.06
2018-06-21T02:14:41.879Z,86.19
2018-06-21T02:17:10.658Z,86.22
2018-06-21T02:19:39.291Z,85.98
2018-06-21T02:22:07.873Z,86.01
2018-06-21T02:24:36.440Z,85.68
2018-06-21T02:27:05.234Z,85.88
2018-06-21T02:29:33.818Z,86.37
2018-06-21T02:32:02.404Z,86.34
2018-06-21T02:34:30.982Z,86.46
2018-06-21T02:36:59.660Z,86.16
2018-06-21T02:39:28.318Z,86.24
2018-06-21T02:41:56.904Z,86.82
2018-06-21T02:44:25.497Z,86.79
2018-06-21T02:46:54.277Z,86.26
2018-06-21T02:49:22.964Z,87.00
2018-06-21T02:51:51.519Z,86.57
2018-06-21T02:54:20.204Z,87.01
2018-06-21T02:56:48.916Z,86.30
2018-06-21T02:59:17.467Z,86.81
2018-06-21T03:01:46.089Z,86.86
2018-06-21T03:04:14.695Z,86.49
2018-06-21T03:06:43.382Z,86.47
2018-06-21T03:09:11.979Z,87.09
2018-06-21T03:11:40.525Z,86.50
2018-06-21T03:14:09.164Z,86.22
2018-06-21T03:16:37.737Z,86.58
2018-06-21T03:19:06.337Z,86.59
2018-06-21T03:21:34.942Z,86.83
2018-06-21T03:24:03.548Z,86.59
2018-06-21T03:26:32.090Z,86.60
2018-06-21T03:29:00.678Z,86.10
2018-06-21T03:31:29.242Z,85.82
2018-06-21T03:33:57.950Z,86.07
2018-06-21T03:36:26.547Z,86.15
2018-06-21T03:38:55.132Z,85.81
2018-06-21T03:41:23.666Z,85.75
2018-06-21T03:43:52.296Z,86.12
2018-06-21T03:46:20.852Z,86.08
2018-06-21T03:48:49.375Z,85.67
2018-06-21T03:51:17.959Z,86.27
2018-06-21T03:53:46.594Z,85.60
2018-06-21T03:56:15.086Z,86.39
2018-06-21T03:58:43.788Z,85.31
2018-06-21T04:01:12.397Z,85.94
2018-06-21T04:03:41.024Z,85.42
2018-06-21T04:06:09.640Z,85.90
2018-06-21T04:08:38.188Z,86.19
2018-06-21T04:11:06.734Z,84.67
2018-06-21T04:13:35.382Z,85.02
2018-06-21T04:16:03.921Z,85.22
2018-06-21T04:18:46.868Z,85.38
2018-06-21T04:21:15.441Z,85.56
2018-06-21T04:23:43.934Z,85.10
2018-06-21T04:26:12.687Z,85.08
2018-06-21T04:28:41.408Z,84.76
2018-06-21T04:31:10.082Z,83.92
2018-06-21T04:33:38.655Z,83.70
2018-06-21T04:36:07.213Z,84.28
2018-06-21T04:38:37.728Z,83.34
2018-06-21T04:41:06.544Z,84.14
2018-06-21T04:43:35.112Z,83.07
2018-06-21T04:46:03.922Z,82.91
2018-06-21T04:48:32.544Z,81.95
2018-06-21T04:51:01.273Z,82.34
2018-06-21T04:53:29.845Z,82.11
2018-06-21T04:55:58.562Z,81.50
2018-06-21T04:58:27.170Z,80.80
2018-06-21T05:00:55.768Z,78.29
2018-06-21T05:03:24.347Z,78.03
2018-06-21T05:05:52.947Z,77.93
2018-06-21T05:08:21.632Z,77.67
2018-06-21T05:10:50.599Z,77.19
2018-06-21T05:13:19.192Z,77.60
2018-06-21T05:15:47.950Z,78.99
2018-06-21T05:18:16.526Z,78.48
2018-06-21T05:20:45.074Z,77.73
2018-06-21T05:23:13.707Z,77.35
2018-06-21T05:25:42.417Z,76.39
2018-06-21T05:28:11.001Z,77.77
2018-06-21T05:30:39.555Z,77.22
2018-06-21T05:33:08.437Z,75.10
2018-06-21T05:35:36.979Z,75.78
2018-06-21T05:38:05.555Z,74.62
2018-06-21T05:40:36.440Z,73.74
2018-06-21T05:43:05.520Z,71.01
2018-06-21T05:45:34.751Z,69.92
2018-06-21T05:48:04.252Z,67.48
2018-06-21T05:50:33.780Z,67.06
2018-06-21T05:53:02.643Z,66.64
2018-06-21T05:55:32.438Z,65.41
2018-06-21T05:58:01.650Z,64.53
2018-06-21T06:00:44.915Z,65.19
2018-06-21T06:03:13.553Z,65.26
2018-06-21T06:05:42.194Z,65.50
2018-06-21T06:08:10.844Z,65.05
2018-06-21T06:10:39.374Z,65.75
2018-06-21T06:13:07.957Z,64.56
2018-06-21T06:15:36.533Z,64.31
2018-06-21T06:18:05.160Z,63.12
2018-06-21T06:20:33.698Z,61.95
2018-06-21T06:23:02.293Z,61.64
2018-06-21T06:25:30.833Z,62.07
2018-06-21T06:27:59.375Z,61.17
2018-06-21T06:30:27.937Z,60.45
2018-06-21T06:32:56.486Z,61.03
2018-06-21T06:35:28.429Z,61.29
2018-06-21T06:37:57.312Z,61.64
2018-06-21T06:40:25.902Z,62.87
2018-06-21T06:42:54.354Z,62.83
2018-06-21T06:45:22.929Z,63.36
2018-06-21T06:47:51.663Z,64.09
2018-06-21T06:50:20.288Z,63.69
2018-06-21T06:52:48.913Z,64.59
2018-06-21T06:55:17.411Z,64.76
2018-06-21T06:57:45.942Z,65.37
2018-06-21T07:00:14.431Z,64.35
2018-06-21T07:02:43.298Z,65.70
2018-06-21T07:05:11.812Z,66.70
2018-06-21T07:07:40.344Z,65.90
2018-06-21T07:10:08.911Z,65.87
2018-06-21T07:12:37.581Z,66.76
2018-06-21T07:15:06.623Z,66.92
2018-06-21T07:17:35.260Z,66.69
2018-06-21T07:20:03.863Z,66.31
2018-06-21T07:22:32.394Z,66.32
2018-06-21T07:25:00.995Z,65.29
2018-06-21T07:27:29.496Z,64.15
2018-06-21T07:29:58.029Z,63.29
2018-06-21T07:32:26.640Z,64.16
2018-06-21T07:34:55.266Z,62.24
2018-06-21T07:37:23.916Z,61.17
2018-06-21T07:39:52.568Z,58.97
2018-06-21T07:42:21.192Z,59.30
2018-06-21T07:44:49.824Z,60.00
2018-06-21T07:47:18.441Z,59.54
2018-06-21T07:49:46.932Z,61.70
2018-06-21T07:52:15.493Z,61.16
2018-06-21T07:54:44.043Z,62.42
2018-06-21T07:57:12.602Z,63.68
2018-06-21T07:59:41.133Z,63.11
2018-06-21T08:02:09.803Z,64.36
2018-06-21T08:04:38.321Z,64.51
2018-06-21T08:07:07.046Z,65.25
2018-06-21T08:09:35.685Z,65.67
2018-06-21T08:12:04.264Z,66.65
2018-06-21T08:14:32.912Z,67.10
2018-06-21T08:17:01.489Z,67.73
2018-06-21T08:19:30.132Z,71.35
2018-06-21T08:21:58.723Z,76.05
2018-06-21T08:24:27.265Z,79.95
2018-06-21T08:26:55.804Z,81.74
2018-06-21T08:29:24.376Z,84.49
2018-06-21T08:31:52.959Z,85.77
2018-06-21T08:34:21.561Z,87.48
2018-06-21T08:36:50.124Z,88.67
2018-06-21T08:39:18.778Z,88.99
2018-06-21T08:41:47.313Z,89.51
2018-06-21T08:44:15.914Z,88.88
2018-06-21T08:46:44.562Z,90.25
2018-06-21T08:49:13.178Z,89.84
2018-06-21T08:51:41.838Z,89.71
2018-06-21T08:54:10.389Z,88.66
2018-06-21T08:56:39.147Z,89.87
2018-06-21T08:59:07.841Z,90.35
2018-06-21T09:01:36.466Z,90.02
2018-06-21T09:04:05.284Z,90.26
2018-06-21T09:06:33.873Z,91.88
2018-06-21T09:09:02.398Z,93.03
2018-06-21T09:11:30.917Z,90.34
2018-06-21T09:13:59.404Z,92.75
2018-06-21T09:16:27.964Z,92.05
2018-06-21T09:18:56.861Z,92.83
2018-06-21T09:21:25.381Z,92.99
2018-06-21T09:23:53.879Z,91.92
2018-06-21T09:26:22.423Z,93.47
2018-06-21T09:28:51.037Z,92.73
2018-06-21T09:31:19.611Z,93.62
2018-06-21T09:33:48.156Z,94.29
2018-06-21T09:36:16.751Z,93.11
2018-06-21T09:40:57.328Z,93.11
2018-06-21T09:43:30.975Z,92.72
2018-06-21T09:46:04.732Z,93.04
2018-06-21T09:48:33.746Z,93.75
2018-06-21T09:51:02.381Z,94.35
2018-06-21T09:53:31.194Z,93.58
2018-06-21T09:56:00.674Z,93.32
2018-06-21T09:58:29.398Z,92.82
2018-06-21T10:01:01.820Z,94.21
2018-06-21T10:03:30.661Z,94.03
2018-06-21T10:05:59.371Z,95.04
2018-06-21T10:08:28.211Z,93.59
2018-06-21T10:10:56.885Z,91.69
2018-06-21T10:13:25.488Z,92.10
2018-06-21T10:15:54.283Z,92.88
2018-06-21T10:18:22.876Z,92.84
2018-06-21T10:20:51.561Z,93.72
2018-06-21T10:23:20.130Z,94.52
2018-06-21T10:25:48.722Z,95.03
2018-06-21T10:28:17.455Z,94.99
2018-06-21T10:30:46.085Z,94.13
2018-06-21T10:33:14.690Z,95.01
2018-06-21T10:35:43.229Z,94.33
2018-06-21T10:38:11.828Z,93.24
2018-06-21T10:40:40.428Z,90.74
2018-06-21T10:43:09.103Z,89.27
2018-06-21T10:45:37.696Z,90.39
2018-06-21T10:48:06.269Z,91.06
2018-06-21T10:50:34.857Z,92.47
2018-06-21T10:53:03.376Z,91.27
2018-06-21T10:55:32.007Z,92.09
2018-06-21T10:58:00.503Z,92.32
2018-06-21T11:00:29.134Z,93.05
2018-06-21T11:02:57.786Z,92.81
2018-06-21T11:05:26.467Z,93.35
2018-06-21T11:07:54.962Z,93.20
2018-06-21T11:10:23.574Z,92.26
2018-06-21T11:12:52.078Z,91.57
2018-06-21T11:15:20.591Z,90.55
2018-06-21T11:17:49.199Z,89.75
2018-06-21T11:20:17.838Z,89.29
2018-06-21T11:22:46.376Z,90.51
2018-06-21T11:25:15.034Z,85.01
2018-06-21T11:27:43.851Z,84.02
2018-06-21T11:30:12.528Z,83.61
2018-06-21T11:32:41.055Z,82.05
2018-06-21T11:35:09.787Z,81.56
2018-06-21T11:37:38.594Z,82.29
2018-06-21T11:40:07.151Z,81.44
2018-06-21T11:42:35.765Z,80.30
2018-06-21T11:45:04.390Z,79.94
2018-06-21T11:47:32.872Z,83.03
2018-06-21T11:50:01.390Z,78.51
2018-06-21T11:52:29.956Z,79.49
2018-06-21T11:54:58.491Z,78.25
2018-06-21T11:57:27.053Z,75.25
2018-06-21T11:59:55.665Z,75.24
2018-06-21T12:02:24.275Z,77.55
2018-06-21T12:04:52.902Z,76.05
2018-06-21T12:07:21.538Z,77.39
2018-06-21T12:09:50.167Z,79.55
2018-06-21T12:12:18.779Z,78.79
2018-06-21T12:14:47.399Z,80.76
2018-06-21T12:17:16.004Z,79.55
2018-06-21T12:19:44.568Z,79.24
2018-06-21T12:22:13.128Z,78.08
2018-06-21T12:24:41.773Z,78.13
2018-06-21T12:27:10.328Z,77.68
2018-06-21T12:29:38.913Z,77.81
2018-06-21T12:32:07.507Z,77.94
2018-06-21T12:34:36.215Z,77.77
2018-06-21T12:37:04.893Z,77.76
2018-06-21T12:39:33.810Z,78.36
2018-06-21T12:42:02.507Z,76.51
2018-06-21T12:44:31.169Z,76.05
2018-06-21T12:46:59.684Z,75.27
2018-06-21T12:49:28.349Z,76.12
2018-06-21T12:51:57.149Z,74.98
2018-06-21T12:54:25.950Z,73.17
2018-06-21T12:56:54.561Z,73.75
2018-06-21T12:59:23.149Z,74.15
2018-06-21T13:01:51.764Z,70.76
2018-06-21T13:04:20.322Z,61.92
2018-06-21T13:06:48.798Z,58.70
2018-06-21T13:11:30.193Z,59.68
2018-06-21T13:14:09.804Z,64.47
2018-06-21T13:16:38.439Z,67.24
2018-06-21T13:19:06.961Z,69.92
2018-06-21T13:21:35.501Z,69.28
2018-06-21T13:24:04.133Z,69.23
2018-06-21T13:26:32.699Z,71.24
2018-06-21T13:29:01.193Z,69.24
2018-06-21T13:31:29.769Z,69.49
2018-06-21T13:33:58.382Z,70.31
2018-06-21T13:36:26.889Z,69.91
2018-06-21T13:38:55.508Z,69.44
2018-06-21T13:41:24.124Z,69.32
2018-06-21T13:43:52.644Z,69.19
2018-06-21T13:46:21.162Z,64.09
2018-06-21T13:48:49.626Z,62.20
2018-06-21T13:51:18.268Z,59.44
2018-06-21T13:53:46.837Z,57.52
2018-06-21T13:56:15.401Z,56.29
2018-06-21T13:58:43.862Z,52.05
2018-06-21T14:01:12.429Z,50.29
2018-06-21T14:03:40.979Z,51.90
2018-06-21T14:06:09.791Z,49.32
2018-06-21T14:08:38.552Z,49.12
2018-06-21T14:11:07.009Z,50.38
2018-06-21T14:13:35.591Z,50.76
2018-06-21T14:16:06.220Z,51.48
2018-06-21T14:18:37.174Z,54.65
2018-06-21T14:21:07.810Z,53.28
2018-06-21T14:23:36.687Z,52.42
2018-06-21T14:26:05.268Z,52.31
2018-06-21T14:28:33.869Z,53.37
2018-06-21T14:31:02.554Z,53.04
2018-06-21T14:33:31.216Z,52.78
2018-06-21T14:35:59.838Z,52.35
2018-06-21T14:38:28.508Z,50.98
2018-06-21T14:40:57.062Z,52.51
2018-06-21T14:43:25.814Z,47.79
2018-06-21T14:45:54.470Z,45.00
2018-06-21T14:48:23.288Z,44.59
2018-06-21T14:50:52.081Z,43.82
2018-06-21T14:53:20.753Z,44.78
2018-06-21T14:55:49.436Z,44.32
2018-06-21T14:58:18.180Z,45.08
2018-06-21T15:00:46.719Z,46.04
2018-06-21T15:03:15.414Z,46.23
2018-06-21T15:05:43.975Z,45.82
2018-06-21T15:08:12.649Z,46.85
2018-06-21T15:10:41.349Z,47.07
2018-06-21T15:13:10.094Z,48.05
2018-06-21T15:15:38.774Z,47.73
2018-06-21T15:18:07.389Z,46.95
2018-06-21T15:20:36.082Z,48.43
2018-06-21T15:23:04.889Z,48.53
2018-06-21T15:25:33.515Z,49.34
2018-06-21T15:28:02.168Z,49.79
2018-06-21T15:30:31.025Z,48.02
2018-06-21T15:32:59.739Z,49.19
2018-06-21T15:35:28.468Z,48.20
2018-06-21T15:37:57.046Z,47.51
2018-06-21T15:40:25.676Z,48.13
2018-06-21T15:42:54.380Z,48.92
2018-06-21T15:45:23.064Z,49.53
2018-06-21T15:47:51.628Z,50.05
2018-06-21T15:50:20.191Z,48.88
2018-06-21T15:52:48.926Z,50.83
2018-06-21T15:55:17.585Z,50.74
2018-06-21T15:57:48.189Z,51.63
2018-06-21T16:00:16.877Z,50.74
2018-06-21T16:02:45.389Z,51.45
2018-06-21T16:05:13.906Z,52.07
2018-06-21T16:07:42.621Z,51.95
2018-06-21T16:10:12.879Z,52.87
2018-06-21T16:12:41.733Z,52.80
2018-06-21T16:15:10.341Z,51.50
2018-06-21T16:17:42.247Z,51.38
2018-06-21T16:20:14.903Z,50.97
2018-06-21T16:22:46.530Z,51.14
2018-06-21T16:25:16.993Z,51.80
2018-06-21T16:27:56.976Z,51.86
2018-06-21T16:30:25.590Z,51.25
2018-06-21T16:32:54.184Z,51.87
2018-06-21T16:35:23.410Z,56.63
2018-06-21T16:37:52.158Z,61.22
2018-06-21T16:40:21.388Z,64.85
2018-06-21T16:42:49.987Z,64.71
2018-06-21T16:45:19.094Z,64.84
2018-06-21T16:47:47.864Z,63.97
2018-06-21T16:50:16.540Z,65.04
2018-06-21T16:52:45.395Z,65.13
2018-06-21T16:55:14.133Z,65.08
2018-06-21T16:57:42.982Z,65.63
2018-06-21T17:00:11.678Z,65.77
2018-06-21T17:02:40.272Z,64.81
2018-06-21T17:05:09.488Z,65.00
2018-06-21T17:07:38.555Z,62.76
2018-06-21T17:10:07.550Z,62.48
2018-06-21T17:12:37.460Z,61.52
2018-06-21T17:15:06.698Z,61.56
2018-06-21T17:17:35.886Z,61.30
2018-06-21T17:20:05.242Z,61.29
2018-06-21T17:22:35.520Z,61.68
2018-06-21T17:25:05.337Z,61.69
2018-06-21T17:27:46.601Z,62.20
2018-06-21T17:30:15.742Z,61.92
2018-06-21T17:32:44.976Z,62.77
2018-06-21T17:35:15.049Z,63.03
2018-06-21T17:37:44.100Z,63.01
2018-06-21T17:40:12.817Z,62.65
2018-06-21T17:42:41.467Z,63.61
2018-06-21T17:45:10.195Z,63.68
2018-06-21T17:47:39.253Z,64.38
2018-06-21T17:50:08.390Z,64.51
2018-06-21T17:52:37.029Z,65.46
2018-06-21T17:55:06.269Z,66.29
2018-06-21T17:57:35.190Z,67.15
2018-06-21T18:00:04.411Z,67.11
2018-06-21T18:02:32.975Z,67.96
2018-06-21T18:05:01.933Z,69.69
2018-06-21T18:07:30.904Z,69.72
2018-06-21T18:09:59.711Z,66.38
2018-06-21T18:12:28.458Z,67.14
2018-06-21T18:14:57.397Z,66.82
2018-06-21T18:17:25.994Z,66.92
2018-06-21T18:19:54.576Z,67.78
2018-06-21T18:22:23.208Z,68.49
2018-06-21T18:24:52.016Z,68.59
2018-06-21T18:27:21.012Z,69.77
2018-06-21T18:29:50.066Z,69.00
2018-06-21T18:32:19.001Z,70.33
2018-06-21T18:34:47.579Z,71.00
2018-06-21T18:37:16.322Z,70.70
2018-06-21T18:39:45.394Z,70.57
2018-06-21T18:42:14.078Z,70.83
2018-06-21T18:44:42.580Z,71.01
2018-06-21T18:47:11.118Z,70.64
2018-06-21T18:49:39.638Z,71.00
2018-06-21T18:52:08.695Z,70.90
2018-06-21T18:54:37.441Z,70.93
2018-06-21T18:57:06.340Z,72.07
2018-06-21T18:59:35.296Z,71.14
2018-06-21T19:02:04.149Z,70.67
2018-06-21T19:04:33.225Z,69.42
2018-06-21T19:07:09.595Z,70.05
2018-06-21T19:09:43.348Z,69.98
2018-06-21T19:12:14.054Z,69.36
2018-06-21T19:14:42.804Z,70.04
2018-06-21T19:17:11.660Z,70.48
2018-06-21T19:19:40.584Z,70.26
2018-06-21T19:22:09.490Z,69.36
2018-06-21T19:24:39.245Z,68.51
2018-06-21T19:27:08.753Z,68.42
2018-06-21T19:29:41.292Z,69.39
2018-06-21T19:32:10.139Z,69.27
2018-06-21T19:34:43.896Z,69.49
2018-06-21T19:37:15.602Z,69.46
2018-06-21T19:39:51.714Z,69.60
2018-06-21T19:42:20.288Z,70.26
2018-06-21T19:44:49.343Z,70.50
2018-06-21T19:47:18.213Z,70.85
2018-06-21T19:49:47.342Z,70.67
2018-06-21T19:52:16.565Z,71.98
2018-06-21T19:54:45.420Z,72.74
2018-06-21T19:57:14.125Z,72.69
2018-06-21T19:59:42.903Z,73.39
2018-06-21T20:02:11.557Z,73.49
2018-06-21T20:04:40.308Z,74.02
2018-06-21T20:07:09.444Z,74.09
2018-06-21T20:09:38.021Z,74.34
2018-06-21T20:12:06.762Z,74.97
2018-06-21T20:14:36.071Z,74.06
2018-06-21T20:17:04.758Z,74.51
2018-06-21T20:20:38.631Z,75.58
2018-06-21T20:23:07.345Z,75.38
2018-06-21T20:25:35.879Z,76.10
2018-06-21T20:28:04.552Z,75.74
2018-06-21T20:30:36.314Z,76.14
2018-06-21T20:33:05.585Z,76.10
2018-06-21T20:35:34.242Z,76.07
2018-06-21T20:38:02.883Z,75.65
2018-06-21T20:40:31.578Z,75.50
2018-06-21T20:43:00.266Z,76.14
2018-06-21T20:45:28.906Z,75.31
2018-06-21T20:47:57.578Z,75.54
2018-06-21T20:50:26.322Z,75.77
2018-06-21T20:52:56.443Z,75.15
2018-06-21T20:55:25.169Z,75.15
2018-06-21T20:57:54.675Z,74.58
2018-06-21T21:00:23.567Z,74.77
2018-06-21T21:02:52.674Z,74.59
2018-06-21T21:05:21.660Z,74.88
2018-06-21T21:07:51.104Z,75.26
2018-06-21T21:10:20.279Z,75.47
2018-06-21T21:12:48.962Z,75.28
2018-06-21T21:15:17.639Z,75.83
2018-06-21T21:17:46.308Z,76.25
2018-06-21T21:20:15.115Z,76.50
2018-06-21T21:22:44.912Z,75.95
2018-06-21T21:25:13.430Z,77.04
2018-06-21T21:27:41.983Z,76.65
2018-06-21T21:30:10.693Z,76.44
2018-06-21T21:32:39.402Z,77.33
2018-06-21T21:35:08.037Z,77.66
2018-06-21T21:37:36.629Z,77.78
2018-06-21T21:40:06.638Z,77.34
2018-06-21T21:42:36.358Z,77.71
2018-06-21T21:45:05.102Z,77.80
2018-06-21T21:47:34.030Z,77.44
2018-06-21T21:50:03.183Z,77.74
2018-06-21T21:52:31.864Z,78.36
2018-06-21T21:55:00.436Z,78.84
2018-06-21T21:57:29.157Z,78.58
2018-06-21T21:59:57.777Z,78.82
2018-06-21T22:02:26.274Z,78.72
2018-06-21T22:04:54.882Z,79.77
2018-06-21T22:07:23.978Z,79.87
2018-06-21T22:09:52.649Z,79.91
2018-06-21T22:12:21.320Z,79.58
2018-06-21T22:14:50.336Z,79.61
2018-06-21T22:17:19.155Z,79.39
2018-06-21T22:19:47.730Z,79.94
2018-06-21T22:22:16.306Z,80.05
2018-06-21T22:24:46.205Z,79.32
2018-06-21T22:27:14.757Z,79.76
2018-06-21T22:29:43.634Z,80.71
2018-06-21T22:32:13.105Z,80.67
2018-06-21T22:34:43.013Z,80.28
2018-06-21T22:37:11.634Z,80.99
2018-06-21T22:39:40.488Z,80.28
2018-06-21T22:42:09.174Z,80.49
2018-06-21T22:44:37.741Z,81.07
2018-06-21T22:47:06.541Z,81.01
2018-06-21T22:49:35.126Z,80.97
2018-06-21T22:52:04.015Z,81.33
2018-06-21T22:54:32.590Z,81.01
2018-06-21T22:57:01.290Z,81.20
2018-06-21T22:59:29.857Z,80.89
2018-06-21T23:01:58.846Z,81.33
2018-06-21T23:04:27.909Z,81.62
2018-06-21T23:06:56.794Z,81.13
2018-06-21T23:09:25.474Z,80.99
2018-06-21T23:11:54.014Z,81.87
2018-06-21T23:14:22.691Z,81.43
2018-06-21T23:16:54.441Z,81.92
2018-06-21T23:19:30.698Z,81.85
2018-06-21T23:22:00.215Z,81.34
2018-06-21T23:24:28.858Z,81.71
2018-06-21T23:26:57.820Z,81.81
2018-06-21T23:29:26.435Z,82.58
2018-06-21T23:31:55.140Z,82.66
2018-06-21T23:34:23.887Z,82.36
2018-06-21T23:36:52.465Z,82.41
2018-06-21T23:39:20.997Z,83.20
2018-06-21T23:41:49.538Z,83.38
2018-06-21T23:44:18.014Z,82.12
2018-06-21T23:46:46.589Z,81.77
2018-06-21T23:49:15.175Z,82.45
2018-06-21T23:51:43.688Z,82.62
2018-06-21T23:54:13.527Z,82.03
2018-06-21T23:56:43.460Z,82.39
2018-06-21T23:59:12.002Z,82.10
